Time;durP1;ratioP1;P1;durP2;ratioP2;P2;SDS_P1;SDS_P2;PMS_P1;PMS_P2;Temp;Humidity;BMP_temperature;BMP_pressure;BME280_temperature;BME280_humidity;BME280_pressure;Samples;Min_cycle;Max_cycle;Signal;HPM_P1;HPM_P2
2022/04/03 00:02:01;;;;;;;5.85;2.05;;;1.20;99.90;;;;;;5079689;28;20455;-60
2022/04/03 00:04:26;;;;;;;2.78;1.77;;;1.20;99.90;;;;;;5075631;28;20032;-60
2022/04/03 00:06:52;;;;;;;3.53;1.83;;;1.20;99.90;;;;;;5084071;28;20501;-60
2022/04/03 00:09:18;;;;;;;2.05;1.52;;;1.20;99.90;;;;;;5081770;28;20536;-60
2022/04/03 00:11:44;;;;;;;3.08;2.00;;;1.30;99.90;;;;;;5070463;28;20071;-60
2022/04/03 00:14:10;;;;;;;2.95;1.77;;;1.30;99.90;;;;;;5086883;28;20036;-60
2022/04/03 00:16:36;;;;;;;3.92;1.85;;;1.30;99.90;;;;;;5081013;28;20059;-60
2022/04/03 00:19:03;;;;;;;3.72;1.98;;;1.40;99.90;;;;;;5086004;28;20195;-60
2022/04/03 00:21:29;;;;;;;3.67;1.90;;;1.40;99.90;;;;;;5087387;28;20055;-60
2022/04/03 00:23:55;;;;;;;4.25;1.80;;;1.50;99.90;;;;;;5084341;28;20533;-60
2022/04/03 00:26:21;;;;;;;3.75;2.22;;;1.50;99.90;;;;;;5084055;28;20052;-60
2022/04/03 00:28:46;;;;;;;3.45;1.85;;;1.50;99.90;;;;;;5088513;28;20084;-60
2022/04/03 00:31:12;;;;;;;4.15;2.42;;;1.50;99.90;;;;;;5080128;28;20043;-61
2022/04/03 00:33:40;;;;;;;4.03;2.20;;;1.50;99.90;;;;;;5088344;28;20044;-61
2022/04/03 00:36:06;;;;;;;2.85;2.10;;;1.60;99.90;;;;;;5083440;28;20140;-61
2022/04/03 00:38:32;;;;;;;3.72;1.80;;;1.60;99.90;;;;;;5082795;28;20039;-61
2022/04/03 00:41:01;;;;;;;2.88;1.85;;;1.60;99.90;;;;;;5080227;28;20050;-61
2022/04/03 00:43:27;;;;;;;6.35;1.77;;;1.60;99.90;;;;;;5087946;28;20045;-60
2022/04/03 00:45:53;;;;;;;4.50;2.00;;;1.60;99.90;;;;;;5083374;28;20032;-60
2022/04/03 00:48:19;;;;;;;4.32;2.10;;;1.70;99.90;;;;;;5087715;28;20089;-61
2022/04/03 00:50:45;;;;;;;6.45;2.05;;;1.70;99.90;;;;;;5092037;28;20048;-60
2022/04/03 00:53:11;;;;;;;3.38;2.05;;;1.70;99.90;;;;;;5092696;28;20154;-61
2022/04/03 00:55:42;;;;;;;4.40;2.35;;;1.70;99.90;;;;;;5090608;28;20079;-61
2022/04/03 00:58:11;;;;;;;3.92;2.00;;;1.70;99.90;;;;;;5086514;28;20565;-60
2022/04/03 01:00:37;;;;;;;5.05;2.67;;;1.70;99.90;;;;;;5086176;28;20434;-60
2022/04/03 01:03:03;;;;;;;2.85;1.92;;;1.80;99.90;;;;;;5089031;28;20028;-60
2022/04/03 01:05:29;;;;;;;5.45;2.65;;;1.80;99.90;;;;;;5088611;28;20044;-60
2022/04/03 01:07:55;;;;;;;3.47;1.80;;;1.80;99.90;;;;;;5092187;28;20457;-60
2022/04/03 01:10:21;;;;;;;3.05;2.13;;;1.80;99.90;;;;;;5086055;28;20252;-60
2022/04/03 01:12:47;;;;;;;3.22;1.98;;;1.80;99.90;;;;;;5092191;28;20462;-60
2022/04/03 01:15:17;;;;;;;3.60;2.28;;;1.80;99.90;;;;;;5090401;28;20044;-60
2022/04/03 01:17:44;;;;;;;6.80;1.83;;;1.80;99.90;;;;;;5085346;28;20045;-61
2022/04/03 01:20:11;;;;;;;4.22;2.08;;;1.80;99.90;;;;;;5085509;28;20044;-60
2022/04/03 01:22:38;;;;;;;4.85;2.28;;;1.80;99.90;;;;;;5100877;28;20120;-60
2022/04/03 01:25:04;;;;;;;3.88;2.25;;;1.80;99.90;;;;;;5080811;28;20036;-61
2022/04/03 01:27:30;;;;;;;4.90;2.17;;;1.80;99.90;;;;;;5089219;28;20054;-60
2022/04/03 01:29:57;;;;;;;3.63;1.90;;;1.90;99.90;;;;;;5085513;28;20408;-61
2022/04/03 01:32:26;;;;;;;6.75;1.98;;;1.90;99.90;;;;;;5091894;28;20052;-61
2022/04/03 01:34:51;;;;;;;2.55;1.88;;;1.90;99.90;;;;;;5091404;28;20040;-60
2022/04/03 01:37:17;;;;;;;4.15;2.03;;;1.90;99.90;;;;;;5091820;28;20435;-61
2022/04/03 01:39:43;;;;;;;2.35;2.13;;;1.90;99.90;;;;;;5090329;28;20070;-61
2022/04/03 01:42:09;;;;;;;7.13;2.22;;;1.90;99.90;;;;;;5081116;28;20070;-61
2022/04/03 01:44:35;;;;;;;4.85;2.22;;;1.90;99.90;;;;;;5090272;28;20082;-61
2022/04/03 01:47:01;;;;;;;4.82;2.10;;;2.00;99.90;;;;;;5084828;28;20025;-61
2022/04/03 01:49:27;;;;;;;3.42;1.95;;;2.00;99.90;;;;;;5084494;28;20089;-61
2022/04/03 01:51:53;;;;;;;3.22;2.10;;;2.00;99.90;;;;;;5089228;28;20497;-60
2022/04/03 01:54:19;;;;;;;4.07;2.35;;;1.90;99.90;;;;;;5089764;28;20537;-60
2022/04/03 01:56:45;;;;;;;4.15;2.10;;;1.90;99.90;;;;;;5090342;28;20033;-61
2022/04/03 01:59:11;;;;;;;3.45;2.40;;;1.90;99.90;;;;;;5069613;28;20036;-60
2022/04/03 02:01:37;;;;;;;4.55;2.53;;;1.90;99.90;;;;;;5086636;28;20043;-61
2022/04/03 02:04:03;;;;;;;4.50;2.35;;;1.90;99.90;;;;;;5088028;28;20036;-61
2022/04/03 02:06:33;;;;;;;7.03;2.63;;;1.90;99.90;;;;;;5079840;28;20035;-60
2022/04/03 02:09:01;;;;;;;4.80;2.63;;;1.90;99.90;;;;;;5084954;28;20157;-61
2022/04/03 02:11:28;;;;;;;7.45;3.20;;;1.90;99.90;;;;;;5081360;28;20043;-61
2022/04/03 02:13:54;;;;;;;4.07;2.17;;;1.90;99.90;;;;;;5085972;28;20076;-60
2022/04/03 02:16:19;;;;;;;5.70;2.85;;;1.90;99.90;;;;;;5090547;28;20666;-61
2022/04/03 02:18:45;;;;;;;5.25;2.90;;;1.90;99.90;;;;;;5089687;28;20040;-60
2022/04/03 02:21:11;;;;;;;2.83;2.28;;;1.90;99.90;;;;;;5088816;28;20040;-61
2022/04/03 02:23:38;;;;;;;5.05;2.63;;;1.90;99.90;;;;;;5087936;28;20043;-61
2022/04/03 02:26:04;;;;;;;5.88;2.85;;;1.90;99.90;;;;;;5084098;28;20075;-60
2022/04/03 02:28:30;;;;;;;6.70;2.67;;;1.90;99.90;;;;;;5091082;28;20040;-61
2022/04/03 02:30:56;;;;;;;3.58;2.47;;;1.90;99.90;;;;;;5069328;28;20047;-60
2022/04/03 02:33:21;;;;;;;4.07;2.60;;;1.90;99.90;;;;;;5087050;28;20041;-60
2022/04/03 02:35:47;;;;;;;5.00;2.85;;;1.80;99.90;;;;;;5090717;28;20044;-60
2022/04/03 02:38:15;;;;;;;3.50;2.15;;;1.80;99.90;;;;;;5090294;28;20123;-60
2022/04/03 02:40:43;;;;;;;5.22;2.20;;;1.80;99.90;;;;;;5081268;28;20036;-61
2022/04/03 02:43:09;;;;;;;4.43;2.58;;;1.80;99.90;;;;;;5083134;28;20047;-61
2022/04/03 02:45:36;;;;;;;4.07;2.20;;;1.70;99.90;;;;;;5069471;28;20043;-61
2022/04/03 02:48:02;;;;;;;6.00;2.55;;;1.70;99.90;;;;;;5089941;28;20622;-61
2022/04/03 02:50:28;;;;;;;4.18;2.40;;;1.60;99.90;;;;;;5089981;28;20331;-61
2022/04/03 02:52:54;;;;;;;4.85;3.00;;;1.60;99.90;;;;;;5082821;28;20039;-60
2022/04/03 02:55:22;;;;;;;4.28;2.88;;;1.60;99.90;;;;;;5081975;28;20104;-60
2022/04/03 02:57:48;;;;;;;3.45;2.05;;;1.60;99.90;;;;;;5086009;28;20352;-60
2022/04/03 03:00:15;;;;;;;3.17;2.30;;;1.60;99.90;;;;;;5083307;28;20044;-61
2022/04/03 03:02:45;;;;;;;5.55;2.70;;;1.50;99.90;;;;;;5085024;28;20044;-60
2022/04/03 03:05:13;;;;;;;5.15;2.10;;;1.50;99.90;;;;;;5084653;28;20068;-60
2022/04/03 03:07:41;;;;;;;3.63;2.22;;;1.40;99.90;;;;;;5079856;28;20044;-60
2022/04/03 03:10:13;;;;;;;3.55;2.28;;;1.40;99.90;;;;;;5078938;28;20051;-60
2022/04/03 03:12:39;;;;;;;16.38;2.80;;;1.40;99.90;;;;;;5081247;28;20036;-61
2022/04/03 03:15:05;;;;;;;3.42;2.20;;;1.40;99.90;;;;;;5088124;28;20544;-61
2022/04/03 03:17:31;;;;;;;3.55;1.83;;;1.40;99.90;;;;;;5084668;28;20050;-61
2022/04/03 03:19:58;;;;;;;3.67;2.00;;;1.40;99.90;;;;;;5078438;28;20076;-60
2022/04/03 03:22:25;;;;;;;2.72;2.00;;;1.30;99.90;;;;;;5087590;28;20028;-61
2022/04/03 03:24:51;;;;;;;4.32;2.20;;;1.30;99.90;;;;;;5079290;28;20036;-60
2022/04/03 03:27:17;;;;;;;3.40;2.42;;;1.30;99.90;;;;;;5078176;28;20086;-61
2022/04/03 03:29:43;;;;;;;4.60;2.00;;;1.30;99.90;;;;;;5081196;28;20036;-61
2022/04/03 03:32:09;;;;;;;5.65;2.85;;;1.30;99.90;;;;;;5081049;28;20041;-61
2022/04/03 03:34:35;;;;;;;3.67;2.15;;;1.40;99.90;;;;;;5082208;28;20085;-60
2022/04/03 03:37:01;;;;;;;4.72;2.53;;;1.30;99.90;;;;;;5088282;28;20040;-60
2022/04/03 03:39:27;;;;;;;3.92;2.30;;;1.30;99.90;;;;;;5086087;28;20510;-60
2022/04/03 03:41:55;;;;;;;6.45;2.50;;;1.30;99.90;;;;;;5083636;28;20206;-60
2022/04/03 03:44:24;;;;;;;3.38;2.13;;;1.40;99.90;;;;;;5080759;28;20092;-60
2022/04/03 03:46:50;;;;;;;6.18;2.03;;;1.30;99.90;;;;;;5084727;28;20557;-61
2022/04/03 03:49:16;;;;;;;3.40;1.95;;;1.30;99.90;;;;;;5083919;28;20039;-60
2022/04/03 03:51:43;;;;;;;7.55;2.22;;;1.30;99.90;;;;;;5088511;28;20036;-60
2022/04/03 03:54:09;;;;;;;3.15;2.03;;;1.30;99.90;;;;;;5083535;28;20047;-60
2022/04/03 03:56:35;;;;;;;3.67;2.17;;;1.30;99.90;;;;;;5088488;28;20055;-60
2022/04/03 03:59:01;;;;;;;5.90;2.15;;;1.30;99.90;;;;;;5079245;28;20418;-61
2022/04/03 04:01:27;;;;;;;2.90;1.77;;;1.20;99.90;;;;;;5087428;28;20413;-60
2022/04/03 04:03:53;;;;;;;4.28;2.50;;;1.20;99.90;;;;;;5088095;28;20032;-61
2022/04/03 04:06:18;;;;;;;3.80;1.75;;;1.20;99.90;;;;;;5079577;28;20087;-60
2022/04/03 04:08:44;;;;;;;3.05;2.15;;;1.10;99.90;;;;;;5072659;28;20623;-60
2022/04/03 04:11:10;;;;;;;3.35;2.05;;;1.10;99.90;;;;;;5079014;28;20040;-60
2022/04/03 04:13:36;;;;;;;3.45;1.98;;;1.10;99.90;;;;;;5083652;28;20040;-60
2022/04/03 04:16:05;;;;;;;2.53;1.75;;;1.10;99.90;;;;;;5084591;28;20051;-60
2022/04/03 04:18:31;;;;;;;3.17;1.90;;;1.00;99.90;;;;;;5081066;28;20044;-61
2022/04/03 04:20:57;;;;;;;3.28;2.45;;;1.00;99.90;;;;;;5083126;28;20058;-61
2022/04/03 04:23:23;;;;;;;5.00;1.90;;;1.00;99.90;;;;;;5094616;28;20043;-60
2022/04/03 04:25:49;;;;;;;5.50;2.05;;;1.00;99.90;;;;;;5082679;28;20218;-61
2022/04/03 04:28:15;;;;;;;3.42;2.03;;;0.90;99.90;;;;;;5095972;28;20208;-61
2022/04/03 04:30:41;;;;;;;4.32;2.13;;;0.90;99.90;;;;;;5090697;28;20322;-60
2022/04/03 04:33:07;;;;;;;3.40;2.05;;;0.90;99.90;;;;;;5092228;28;20074;-61
2022/04/03 04:35:36;;;;;;;2.70;1.77;;;0.90;99.90;;;;;;5088635;28;20511;-61
2022/04/03 04:38:02;;;;;;;2.35;1.65;;;0.90;99.90;;;;;;5094397;28;20040;-61
2022/04/03 04:40:29;;;;;;;4.05;1.67;;;0.90;99.90;;;;;;5093469;28;20044;-60
2022/04/03 04:42:57;;;;;;;2.45;1.95;;;0.90;99.90;;;;;;5092384;28;20118;-60
2022/04/03 04:45:25;;;;;;;3.38;2.10;;;0.90;99.90;;;;;;5087633;28;20632;-60
2022/04/03 04:47:59;;;;;;;4.20;2.33;;;0.90;99.90;;;;;;5090351;28;20600;-60
2022/04/03 04:50:26;;;;;;;3.50;2.50;;;0.90;99.90;;;;;;5094801;28;20104;-61
2022/04/03 04:52:52;;;;;;;2.97;1.77;;;0.80;99.90;;;;;;5083585;28;20554;-60
2022/04/03 04:55:19;;;;;;;4.03;1.92;;;0.80;99.90;;;;;;5085074;28;20047;-60
2022/04/03 04:57:53;;;;;;;3.90;2.10;;;0.80;99.90;;;;;;5088080;28;20260;-60
2022/04/03 05:00:22;;;;;;;2.30;1.40;;;0.80;99.90;;;;;;5090647;28;20443;-60
2022/04/03 05:02:49;;;;;;;3.80;1.55;;;0.70;99.90;;;;;;5091808;28;20454;-60
2022/04/03 05:05:18;;;;;;;4.25;1.90;;;0.70;99.90;;;;;;5094214;28;20052;-60
2022/04/03 05:07:44;;;;;;;1.85;1.35;;;0.70;99.90;;;;;;5084292;28;20111;-61
2022/04/03 05:10:12;;;;;;;2.58;1.75;;;0.70;99.90;;;;;;5089188;28;20173;-60
2022/04/03 05:12:39;;;;;;;3.25;1.58;;;0.70;99.90;;;;;;5087351;28;20477;-60
2022/04/03 05:15:10;;;;;;;2.72;1.52;;;0.70;99.90;;;;;;5095030;28;20519;-61
2022/04/03 05:17:36;;;;;;;3.45;1.63;;;0.70;99.90;;;;;;5091862;28;20085;-60
2022/04/03 05:20:03;;;;;;;3.88;1.58;;;0.60;99.90;;;;;;5093456;28;20193;-60
2022/04/03 05:22:29;;;;;;;6.72;2.13;;;0.60;99.90;;;;;;5083308;28;20040;-61
2022/04/03 05:24:56;;;;;;;3.90;2.03;;;0.60;99.90;;;;;;5093674;28;20040;-60
2022/04/03 05:27:22;;;;;;;2.92;1.92;;;0.60;99.90;;;;;;5086787;28;20059;-60
2022/04/03 05:29:48;;;;;;;6.70;2.60;;;0.60;99.90;;;;;;5093490;28;20044;-60
2022/04/03 05:32:14;;;;;;;5.40;1.85;;;0.60;99.90;;;;;;5088626;28;20044;-60
2022/04/03 05:34:40;;;;;;;5.95;2.20;;;0.60;99.90;;;;;;5091169;28;20047;-60
2022/04/03 05:37:06;;;;;;;3.70;1.80;;;0.60;99.90;;;;;;5090227;28;20051;-60
2022/04/03 05:39:32;;;;;;;3.30;1.80;;;0.60;99.90;;;;;;5089576;28;20300;-60
2022/04/03 05:41:58;;;;;;;3.97;2.05;;;0.60;99.90;;;;;;5085467;28;20032;-60
2022/04/03 05:44:24;;;;;;;4.38;1.65;;;0.60;99.90;;;;;;5090232;28;20503;-60
2022/04/03 05:46:51;;;;;;;3.22;1.55;;;0.60;99.90;;;;;;5081443;28;20505;-61
2022/04/03 05:49:17;;;;;;;4.57;1.90;;;0.60;99.90;;;;;;5088313;28;20052;-60
2022/04/03 05:51:43;;;;;;;2.35;1.30;;;0.60;99.90;;;;;;5096929;28;20494;-60
2022/04/03 05:54:09;;;;;;;4.40;2.13;;;0.60;99.90;;;;;;5089313;28;20047;-60
2022/04/03 05:56:35;;;;;;;4.65;1.85;;;0.60;99.90;;;;;;5088241;28;20139;-61
2022/04/03 05:59:01;;;;;;;6.20;1.67;;;0.60;99.90;;;;;;5087702;28;20115;-61
2022/04/03 06:01:27;;;;;;;2.30;1.40;;;0.70;99.90;;;;;;5085393;28;20097;-60
2022/04/03 06:03:53;;;;;;;2.65;1.60;;;0.60;99.90;;;;;;5089943;28;20677;-60
2022/04/03 06:06:18;;;;;;;4.63;1.85;;;0.60;99.90;;;;;;5090822;28;20115;-61
2022/04/03 06:08:44;;;;;;;3.53;2.33;;;0.70;99.90;;;;;;5085673;28;20090;-60
2022/04/03 06:11:10;;;;;;;3.60;1.83;;;0.70;99.90;;;;;;5084686;28;20040;-60
2022/04/03 06:13:36;;;;;;;3.53;2.00;;;0.70;99.90;;;;;;5089852;28;20070;-60
2022/04/03 06:16:02;;;;;;;3.20;1.70;;;0.70;99.90;;;;;;5091100;28;20603;-60
2022/04/03 06:18:28;;;;;;;6.32;1.70;;;0.70;99.90;;;;;;5078877;28;20033;-60
2022/04/03 06:20:54;;;;;;;5.97;2.08;;;0.70;99.90;;;;;;5084064;28;20076;-60
2022/04/03 06:23:22;;;;;;;3.55;1.65;;;0.80;99.90;;;;;;5082965;28;20068;-60
2022/04/03 06:25:52;;;;;;;6.72;2.45;;;0.80;99.90;;;;;;5088945;28;20142;-60
2022/04/03 06:28:19;;;;;;;2.97;1.75;;;0.80;99.90;;;;;;5087434;28;20055;-60
2022/04/03 06:30:49;;;;;;;3.53;1.50;;;1.00;99.90;;;;;;5071403;28;20049;-60
2022/04/03 06:33:17;;;;;;;8.45;2.92;;;1.10;99.90;;;;;;5072461;28;20028;-60
2022/04/03 06:35:44;;;;;;;2.83;1.77;;;1.10;99.90;;;;;;5089109;28;20228;-60
2022/04/03 06:38:10;;;;;;;4.03;1.67;;;1.20;99.90;;;;;;5084955;28;20051;-60
2022/04/03 06:40:37;;;;;;;4.28;1.88;;;1.30;99.90;;;;;;5088972;28;20101;-60
2022/04/03 06:43:03;;;;;;;3.13;1.90;;;1.40;99.90;;;;;;5082561;28;20044;-60
2022/04/03 06:45:29;;;;;;;2.65;1.65;;;1.80;99.90;;;;;;5082895;28;20047;-60
2022/04/03 06:47:57;;;;;;;3.50;1.83;;;2.20;99.90;;;;;;5079115;28;20421;-60
2022/04/03 06:50:23;;;;;;;3.17;1.60;;;2.30;99.90;;;;;;5070061;28;20040;-61
2022/04/03 06:52:49;;;;;;;4.95;1.88;;;2.30;99.90;;;;;;5102482;28;20084;-61
2022/04/03 06:55:15;;;;;;;5.93;1.83;;;2.40;99.90;;;;;;5087249;28;20451;-61
2022/04/03 06:57:41;;;;;;;1.88;1.10;;;2.40;99.90;;;;;;5087359;28;20501;-61
2022/04/03 07:00:08;;;;;;;2.88;1.48;;;2.50;99.90;;;;;;5084863;28;20040;-60
2022/04/03 07:02:34;;;;;;;2.50;1.50;;;2.50;99.90;;;;;;5088678;28;20045;-60
2022/04/03 07:05:02;;;;;;;3.25;1.25;;;2.60;99.90;;;;;;5087410;28;20117;-60
2022/04/03 07:07:28;;;;;;;1.58;1.20;;;2.70;99.90;;;;;;5088246;28;20055;-60
2022/04/03 07:09:54;;;;;;;2.55;1.20;;;2.70;99.90;;;;;;5086767;28;20047;-60
2022/04/03 07:12:21;;;;;;;3.63;2.08;;;2.80;99.90;;;;;;5084530;28;20506;-60
2022/04/03 07:14:47;;;;;;;3.13;1.65;;;2.90;99.90;;;;;;5077726;28;20127;-60
2022/04/03 07:17:14;;;;;;;3.95;2.35;;;3.00;99.90;;;;;;5077385;28;20101;-60
2022/04/03 07:19:40;;;;;;;2.03;1.30;;;;;;;;;;5083663;28;20040;-60
2022/04/03 07:22:06;;;;;;;5.53;1.63;;;3.00;99.90;;;;;;5082183;28;20587;-60
2022/04/03 07:24:31;;;;;;;3.20;1.45;;;3.20;99.90;;;;;;5084547;28;20032;-60
2022/04/03 07:26:57;;;;;;;3.40;1.48;;;3.30;99.90;;;;;;5083960;28;20564;-60
2022/04/03 07:29:24;;;;;;;2.90;1.10;;;3.30;99.90;;;;;;5073715;28;20051;-60
2022/04/03 07:31:53;;;;;;;3.95;1.27;;;3.40;99.90;;;;;;5085746;28;20092;-61
2022/04/03 07:34:19;;;;;;;3.20;0.98;;;3.40;99.90;;;;;;5064124;28;20051;-60
2022/04/03 07:36:45;;;;;;;1.23;0.98;;;3.50;99.90;;;;;;5076625;28;20044;-60
2022/04/03 07:39:12;;;;;;;4.07;0.90;;;3.50;99.90;;;;;;5072017;28;20063;-60
2022/04/03 07:41:39;;;;;;;1.23;1.02;;;3.60;99.90;;;;;;5081915;28;20054;-60
2022/04/03 07:44:05;;;;;;;4.15;1.00;;;3.70;99.90;;;;;;5070583;28;20489;-61
2022/04/03 07:46:31;;;;;;;1.58;0.70;;;3.70;99.90;;;;;;5077135;28;20032;-60
2022/04/03 07:48:57;;;;;;;5.45;1.10;;;3.80;99.90;;;;;;5070866;28;20421;-60
2022/04/03 07:51:23;;;;;;;1.33;0.95;;;;;;;;;;5074074;28;20453;-61
2022/04/03 07:53:50;;;;;;;1.45;0.80;;;3.80;99.90;;;;;;5075482;28;20501;-60
2022/04/03 07:56:16;;;;;;;0.60;0.57;;;3.90;99.90;;;;;;5086764;28;20044;-60
2022/04/03 07:58:42;;;;;;;1.27;0.75;;;3.90;99.90;;;;;;5083368;28;20036;-61
2022/04/03 08:01:08;;;;;;;1.55;0.80;;;4.00;99.90;;;;;;5087726;28;20055;-60
2022/04/03 08:03:34;;;;;;;6.13;0.75;;;4.00;99.90;;;;;;5084251;28;20574;-60
2022/04/03 08:05:59;;;;;;;2.55;0.73;;;4.10;99.90;;;;;;5088451;28;20036;-60
2022/04/03 08:08:25;;;;;;;3.90;0.90;;;4.10;99.90;;;;;;5086788;28;20044;-60
2022/04/03 08:10:51;;;;;;;4.72;0.80;;;4.20;99.90;;;;;;5074535;28;20513;-60
2022/04/03 08:13:17;;;;;;;2.75;1.00;;;4.30;99.90;;;;;;5072810;28;20489;-60
2022/04/03 08:15:43;;;;;;;3.25;1.20;;;4.30;99.90;;;;;;5083093;28;20036;-60
2022/04/03 08:18:09;;;;;;;1.92;0.70;;;4.40;99.90;;;;;;5081189;28;20044;-60
2022/04/03 08:20:35;;;;;;;4.97;1.08;;;4.40;99.90;;;;;;5094886;28;20058;-60
2022/04/03 08:23:03;;;;;;;1.00;0.70;;;4.50;99.90;;;;;;5083837;28;20047;-60
2022/04/03 08:25:31;;;;;;;1.48;0.80;;;4.60;99.90;;;;;;5081419;28;20040;-61
2022/04/03 08:27:57;;;;;;;5.28;0.95;;;4.60;99.90;;;;;;5084839;28;20533;-60
2022/04/03 08:30:26;;;;;;;3.58;1.35;;;4.60;99.90;;;;;;5093471;28;20062;-61
2022/04/03 08:32:52;;;;;;;1.23;1.13;;;4.70;99.90;;;;;;5082490;28;20440;-60
2022/04/03 08:35:19;;;;;;;1.65;1.10;;;;;;;;;;5083799;28;20097;-61
2022/04/03 08:37:46;;;;;;;1.90;1.20;;;4.70;99.90;;;;;;5084378;28;20047;-61
2022/04/03 08:40:12;;;;;;;4.63;1.25;;;4.80;99.90;;;;;;5080593;28;20040;-60
2022/04/03 08:42:39;;;;;;;4.07;1.80;;;4.80;99.90;;;;;;5082283;28;20047;-60
2022/04/03 08:45:11;;;;;;;2.25;1.15;;;4.80;99.90;;;;;;5065016;28;20631;-60
2022/04/03 08:47:44;;;;;;;3.00;1.33;;;4.90;99.90;;;;;;5078869;28;20044;-61
2022/04/03 08:50:12;;;;;;;2.80;1.80;;;4.90;99.90;;;;;;5081929;28;20423;-61
2022/04/03 08:52:39;;;;;;;4.05;1.52;;;;;;;;;;5084069;28;20044;-61
2022/04/03 08:55:06;;;;;;;2.00;1.33;;;;;;;;;;5081711;28;20076;-61
2022/04/03 08:57:32;;;;;;;3.08;1.30;;;;;;;;;;5081807;28;20529;-60
2022/04/03 09:00:00;;;;;;;1.98;0.93;;;5.00;99.90;;;;;;5081902;28;20055;-60
2022/04/03 09:02:27;;;;;;;4.75;1.63;;;;;;;;;;5078260;28;20648;-60
2022/04/03 09:04:53;;;;;;;2.45;1.30;;;;;;;;;;5080769;28;20124;-60
2022/04/03 09:07:20;;;;;;;5.80;1.60;;;;;;;;;;5080439;28;20048;-60
2022/04/03 09:09:47;;;;;;;1.70;1.05;;;;;;;;;;5083871;28;20059;-60
2022/04/03 09:12:15;;;;;;;1.60;0.90;;;;;;;;;;5083489;28;20118;-61
2022/04/03 09:14:48;;;;;;;1.88;1.63;;;;;;;;;;5089109;28;20512;-60
2022/04/03 09:17:33;;;;;;;2.08;1.30;;;;;;;;;;5086225;28;20390;-60
2022/04/03 09:20:05;;;;;;;1.38;1.00;;;;;;;;;;5085798;28;20040;-61
2022/04/03 09:22:33;;;;;;;1.92;1.20;;;;;;;;;;5081462;28;20045;-60
2022/04/03 09:25:00;;;;;;;2.53;1.10;;;;;;;;;;5087521;28;20685;-60
2022/04/03 09:27:26;;;;;;;1.25;0.98;;;;;;;;;;5084665;28;20064;-61
2022/04/03 09:30:22;;;;;;;2.83;1.25;;;;;;;;;;5087488;28;20108;-60
2022/04/03 09:32:54;;;;;;;3.15;1.30;;;;;;;;;;5082031;28;20468;-61
2022/04/03 09:35:21;;;;;;;1.90;1.02;;;;;;;;;;5088422;28;20142;-60
2022/04/03 09:38:06;;;;;;;1.90;1.17;;;;;;;;;;5087881;28;20044;-60
2022/04/03 09:40:33;;;;;;;2.42;1.08;;;;;;;;;;5085398;28;20091;-61
2022/04/03 09:43:18;;;;;;;3.83;1.92;;;;;;;;;;5088002;28;20419;-61
2022/04/03 09:45:52;;;;;;;2.67;1.00;;;;;;;;;;5084345;28;20368;-61
2022/04/03 09:48:19;;;;;;;1.08;0.90;;;;;;;;;;5085828;28;20477;-61
2022/04/03 09:50:59;;;;;;;2.78;1.45;;;;;;;;;;5085938;28;20048;-61
2022/04/03 09:53:25;;;;;;;4.25;1.10;;;;;;;;;;5086652;28;20071;-60
2022/04/03 09:55:51;;;;;;;2.63;1.20;;;;;;;;;;5084279;28;20113;-61
2022/04/03 09:58:17;;;;;;;4.38;1.30;;;;;;;;;;5088707;28;20123;-61
2022/04/03 10:00:44;;;;;;;2.58;1.17;;;;;;;;;;5081383;28;20048;-60
2022/04/03 10:03:12;;;;;;;1.48;0.90;;;;;;;;;;5080469;28;20037;-61
2022/04/03 10:05:38;;;;;;;2.00;1.15;;;;;;;;;;5076641;28;20090;-60
2022/04/03 10:08:05;;;;;;;4.68;1.35;;;;;;;;;;5079749;28;20042;-60
2022/04/03 10:10:33;;;;;;;1.83;1.20;;;;;;;;;;5074729;28;20357;-60
2022/04/03 10:13:00;;;;;;;0.98;0.80;;;;;;;;;;5087076;28;20043;-61
2022/04/03 10:15:27;;;;;;;2.83;1.10;;;;;;;;;;5082053;28;20101;-61
2022/04/03 10:17:53;;;;;;;3.03;1.48;;;;;;;;;;5077012;28;20101;-60
2022/04/03 10:20:19;;;;;;;7.57;1.48;;;;;;;;;;5073861;28;20043;-60
2022/04/03 10:22:48;;;;;;;1.63;1.05;;;;;;;;;;5087873;28;20052;-61
2022/04/03 10:25:18;;;;;;;2.65;1.52;;;;;;;;;;5078084;28;20047;-61
2022/04/03 10:27:45;;;;;;;2.03;1.17;;;;;;;;;;5088428;28;20110;-61
2022/04/03 10:30:11;;;;;;;2.22;1.10;;;;;;;;;;5075796;28;20197;-60
2022/04/03 10:32:40;;;;;;;3.08;1.30;;;;;;;;;;5076947;28;20123;-60
2022/04/03 10:35:06;;;;;;;2.38;1.00;;;;;;;;;;5085634;28;20044;-60
2022/04/03 10:37:39;;;;;;;2.05;1.08;;;;;;;;;;5086276;28;20044;-60
2022/04/03 10:40:09;;;;;;;1.98;0.90;;;;;;;;;;5080118;28;20042;-60
2022/04/03 10:42:48;;;;;;;1.73;0.93;;;;;;;;;;5081600;28;20059;-60
2022/04/03 10:45:14;;;;;;;2.33;1.67;;;;;;;;;;5084646;28;20047;-60
2022/04/03 10:47:41;;;;;;;1.75;1.10;;;;;;;;;;5071647;28;20032;-61
2022/04/03 10:50:08;;;;;;;1.75;0.95;;;;;;;;;;5086162;28;20040;-60
2022/04/03 10:52:40;;;;;;;4.35;1.00;;;;;;;;;;5085275;28;20044;-60
2022/04/03 10:55:13;;;;;;;3.53;1.33;;;;;;;;;;5078583;28;20439;-60
2022/04/03 10:57:46;;;;;;;1.45;0.85;;;;;;;;;;5087399;28;20040;-60
2022/04/03 11:00:13;;;;;;;0.88;0.77;;;;;;;;;;5089043;28;20035;-60
2022/04/03 11:02:39;;;;;;;4.63;1.55;;;;;;;;;;5094811;28;20130;-60
2022/04/03 11:05:25;;;;;;;3.78;1.33;;;;;;;;;;5089710;28;20149;-60
2022/04/03 11:08:00;;;;;;;5.25;1.00;;;;;;;;;;5074382;28;20041;-60
2022/04/03 11:10:54;;;;;;;2.25;1.05;;;;;;;;;;5084939;28;20123;-60
2022/04/03 11:13:29;;;;;;;2.78;1.10;;;;;;;;;;5078674;28;20562;-60
2022/04/03 11:16:03;;;;;;;1.25;0.68;;;;;;;;;;5074092;28;20048;-60
2022/04/03 11:18:47;;;;;;;4.47;1.05;;;;;;;;;;5074825;28;20111;-60
2022/04/03 11:21:23;;;;;;;2.22;1.00;;;;;;;;;;5089587;28;20035;-60
2022/04/03 11:23:50;;;;;;;2.85;0.90;;;;;;;;;;5084996;28;20111;-60
2022/04/03 11:26:17;;;;;;;1.80;1.00;;;;;;;;;;5085208;28;20044;-60
2022/04/03 11:28:43;;;;;;;5.70;0.98;;;;;;;;;;5069852;28;20040;-60
2022/04/03 11:31:10;;;;;;;1.38;0.77;;;;;;;;;;5078629;28;20489;-60
2022/04/03 11:33:37;;;;;;;2.60;1.10;;;;;;;;;;5082660;28;20040;-61
2022/04/03 11:36:06;;;;;;;1.58;0.82;;;;;;;;;;5078521;28;20405;-61
2022/04/03 11:38:39;;;;;;;4.40;1.45;;;;;;;;;;5074844;28;20069;-60
2022/04/03 11:41:06;;;;;;;1.02;0.60;;;;;;;;;;5080170;28;20064;-61
2022/04/03 11:43:33;;;;;;;1.55;0.70;;;;;;;;;;5077354;28;20514;-60
2022/04/03 11:46:01;;;;;;;3.63;0.80;;;;;;;;;;5082246;28;20036;-60
2022/04/03 11:48:29;;;;;;;2.58;0.95;;;;;;;;;;5078726;28;20040;-60
2022/04/03 11:51:07;;;;;;;1.75;0.90;;;;;;;;;;5081152;28;20122;-60
2022/04/03 11:53:34;;;;;;;4.97;1.30;;;;;;;;;;5072619;28;20120;-60
2022/04/03 11:56:16;;;;;;;1.63;0.75;;;;;;;;;;5087730;28;20040;-60
2022/04/03 11:58:44;;;;;;;1.75;0.75;;;;;;;;;;5075713;28;20040;-60
2022/04/03 12:01:10;;;;;;;1.67;0.82;;;;;;;;;;5087518;28;20124;-60
2022/04/03 12:03:37;;;;;;;0.98;0.68;;;;;;;;;;5082668;28;20044;-60
2022/04/03 12:06:12;;;;;;;2.50;1.08;;;;;;;;;;5080919;28;20096;-60
2022/04/03 12:08:42;;;;;;;4.05;0.85;;;;;;;;;;5076967;28;20401;-60
2022/04/03 12:11:15;;;;;;;1.30;0.75;;;;;;;;;;5082113;28;20077;-60
2022/04/03 12:13:41;;;;;;;2.42;1.17;;;;;;;;;;5076118;28;20397;-59
2022/04/03 12:16:08;;;;;;;2.05;0.90;;;;;;;;;;5088988;28;20043;-59
2022/04/03 12:19:08;;;;;;;2.15;0.80;;;;;;;;;;5076740;28;20041;-60
2022/04/03 12:21:38;;;;;;;3.80;1.20;;;;;;;;;;5052895;28;20055;-60
2022/04/03 12:24:05;;;;;;;1.13;0.82;;;;;;;;;;5069237;28;20085;-60
2022/04/03 12:26:32;;;;;;;2.97;1.10;;;;;;;;;;5070021;28;20549;-60
2022/04/03 12:28:58;;;;;;;1.77;1.08;;;;;;;;;;5069855;28;20044;-60
2022/04/03 12:31:28;;;;;;;3.78;1.55;;;;;;;;;;5072289;28;20036;-60
2022/04/03 12:34:07;;;;;;;2.13;1.10;;;;;;;;;;5078798;28;20036;-60
2022/04/03 12:36:43;;;;;;;3.10;0.90;;;;;;;;;;5084579;28;20055;-60
2022/04/03 12:39:28;;;;;;;0.90;0.82;;;;;;;;;;5084276;28;20161;-60
2022/04/03 12:41:55;;;;;;;4.25;1.77;;;;;;;;;;5086604;28;20086;-59
2022/04/03 12:44:21;;;;;;;1.50;0.93;;;;;;;;;;5081313;28;20032;-60
2022/04/03 12:46:47;;;;;;;1.75;0.98;;;;;;;;;;5088270;28;20040;-60
2022/04/03 12:49:17;;;;;;;4.15;1.17;;;;;;;;;;5092153;28;20122;-59
2022/04/03 12:51:44;;;;;;;2.05;1.00;;;;;;;;;;5092176;28;20040;-60
2022/04/03 12:54:11;;;;;;;2.72;1.30;;;;;;;;;;5083853;28;20048;-60
2022/04/03 12:59:22;;;;;;;1.50;0.90;;;;;;;;;;5086698;28;20135;-59
2022/04/03 13:01:55;;;;;;;2.28;1.48;;;;;;;;;;5073227;28;20071;-60
2022/04/03 13:04:31;;;;;;;2.00;1.10;;;;;;;;;;5079075;28;20046;-60
2022/04/03 13:06:57;;;;;;;5.03;1.20;;;;;;;;;;5083986;28;20075;-60
2022/04/03 13:09:23;;;;;;;2.63;0.95;;;;;;;;;;5082968;28;20032;-60
2022/04/03 13:11:50;;;;;;;4.45;1.20;;;;;;;;;;5084349;28;20071;-60
2022/04/03 13:14:20;;;;;;;1.52;0.90;;;;;;;;;;5084077;28;20433;-60
2022/04/03 13:16:48;;;;;;;2.45;0.98;;;;;;;;;;5069508;28;20498;-60
2022/04/03 13:19:14;;;;;;;1.92;1.15;;;;;;;;;;5087049;28;20329;-60
2022/04/03 13:21:41;;;;;;;2.97;2.20;;;;;;;;;;5085377;28;20040;-60
2022/04/03 13:24:08;;;;;;;1.40;1.00;;;;;;;;;;5075550;28;20046;-61
2022/04/03 13:26:35;;;;;;;1.38;0.70;;;;;;;;;;5091014;28;20082;-60
2022/04/03 13:29:05;;;;;;;0.90;0.73;;;;;;;;;;5091935;28;20070;-60
2022/04/03 13:31:32;;;;;;;3.30;0.80;;;;;;;;;;5089983;28;20048;-61
2022/04/03 13:33:59;;;;;;;1.45;0.80;;;;;;;;;;5088389;28;20048;-60
2022/04/03 13:36:25;;;;;;;2.88;1.23;;;;;;;;;;5091416;28;20040;-60
2022/04/03 13:38:51;;;;;;;2.85;1.00;;;;;;;;;;5091269;28;20040;-64